createdAt,value
2016-09-03T00:00:42.764Z,86.35
2016-09-03T00:01:42.745Z,86.63
2016-09-03T00:02:42.731Z,86.54
2016-09-03T00:03:42.725Z,86.73
2016-09-03T00:04:42.719Z,87.21
2016-09-03T00:05:42.715Z,87.21
2016-09-03T00:06:42.696Z,87.12
2016-09-03T00:07:42.696Z,87.3
2016-09-03T00:08:42.666Z,87.12
2016-09-03T00:09:42.652Z,87.21
2016-09-03T00:10:42.641Z,87.7
2016-09-03T00:11:42.619Z,87.6
2016-09-03T00:12:41.914Z,87.4
2016-09-03T00:13:42.612Z,87.74
2016-09-03T00:14:42.596Z,87.5
2016-09-03T00:15:42.575Z,87.7
2016-09-03T00:16:41.845Z,87.3
2016-09-03T00:17:41.839Z,87.21
2016-09-03T00:18:42.550Z,87.4
2016-09-03T00:19:42.534Z,87.12
2016-09-03T00:20:42.511Z,87.4
2016-09-03T00:21:42.508Z,87.7
2016-09-03T00:22:42.491Z,87.88
2016-09-03T00:23:42.488Z,87.6
2016-09-03T00:24:41.768Z,87.74
2016-09-03T00:25:42.454Z,87.5
2016-09-03T00:26:42.449Z,87.94
2016-09-03T00:27:42.434Z,87.74
2016-09-03T00:28:42.426Z,88.13
2016-09-03T00:29:42.425Z,87.36
2016-09-03T00:30:42.392Z,87.7
2016-09-03T00:31:41.681Z,87.46
2016-09-03T00:32:42.376Z,87.7
2016-09-03T00:33:42.367Z,88.32
2016-09-03T00:34:42.358Z,88.04
2016-09-03T00:35:42.343Z,88.04
2016-09-03T00:36:42.326Z,88.08
2016-09-03T00:37:41.618Z,88.13
2016-09-03T00:38:42.296Z,88.04
2016-09-03T00:39:42.306Z,87.94
2016-09-03T00:40:42.291Z,88.17
2016-09-03T00:41:42.268Z,87.46
2016-09-03T00:42:42.262Z,87.5
2016-09-03T00:43:42.261Z,87.6
2016-09-03T00:44:42.228Z,87.3
2016-09-03T00:45:42.216Z,87.6
2016-09-03T00:46:41.562Z,87.7
2016-09-03T00:47:41.471Z,87.74
2016-09-03T00:48:42.169Z,87.7
2016-09-03T00:49:42.166Z,87.36
2016-09-03T00:50:42.153Z,87.79
2016-09-03T00:51:42.138Z,87.6
2016-09-03T00:52:42.141Z,87.79
2016-09-03T00:53:41.399Z,87.3
2016-09-03T00:54:42.104Z,87.7
2016-09-03T00:55:42.101Z,87.4
2016-09-03T00:56:42.083Z,87.79
2016-09-03T00:57:42.069Z,87.3
2016-09-03T00:58:42.063Z,87.79
2016-09-03T00:59:42.043Z,87.5
2016-09-03T01:00:42.036Z,86.73
2016-09-03T01:01:42.019Z,87.4
2016-09-03T01:02:42.008Z,87.6
2016-09-03T01:03:41.282Z,87.36
2016-09-03T01:04:41.983Z,87.07
2016-09-03T01:05:41.978Z,87.55
2016-09-03T01:06:41.244Z,87.55
2016-09-03T01:07:41.943Z,87.55
2016-09-03T01:08:41.933Z,87.36
2016-09-03T01:09:41.918Z,87.26
2016-09-03T01:10:41.902Z,87.17
2016-09-03T01:11:41.896Z,87.36
2016-09-03T01:12:41.884Z,87.46
2016-09-03T01:13:41.150Z,87.74
2016-09-03T01:14:41.862Z,87.74
2016-09-03T01:15:41.849Z,87.36
2016-09-03T01:16:41.861Z,87.17
2016-09-03T01:17:41.103Z,87.84
2016-09-03T01:18:41.106Z,87.65
2016-09-03T01:19:41.076Z,87.55
2016-09-03T01:20:41.791Z,87.94
2016-09-03T01:21:41.775Z,87.94
2016-09-03T01:22:41.763Z,88.61
2016-09-03T01:23:41.757Z,88.81
2016-09-03T01:24:41.727Z,88.18
2016-09-03T01:25:41.724Z,88.47
2016-09-03T01:26:41.717Z,88.51
2016-09-03T01:27:40.979Z,88.32
2016-09-03T01:28:41.693Z,88.61
2016-09-03T01:29:40.954Z,89.92
2016-09-03T01:30:41.672Z,89.72
2016-09-03T01:31:41.653Z,89.92
2016-09-03T01:32:40.928Z,89.05
2016-09-03T01:33:40.917Z,89.53
2016-09-03T01:34:41.632Z,89.24
2016-09-03T01:35:41.599Z,89.05
2016-09-03T01:36:41.583Z,88.95
2016-09-03T01:37:40.861Z,89.05
2016-09-03T01:38:41.565Z,88.95
2016-09-03T01:39:40.836Z,89.34
2016-09-03T01:40:40.871Z,88.57
2016-09-03T01:41:41.529Z,88.85
2016-09-03T01:42:41.528Z,88.76
2016-09-03T01:43:41.495Z,88.95
2016-09-03T01:44:41.496Z,88.95
2016-09-03T01:45:41.482Z,89.05
2016-09-03T01:46:41.471Z,88.85
2016-09-03T01:47:41.453Z,88.57
2016-09-03T01:48:41.462Z,88.57
2016-09-03T01:49:41.418Z,87.9
2016-09-03T01:50:41.413Z,87.55
2016-09-03T01:51:40.675Z,87.55
2016-09-03T01:52:40.665Z,87.46
2016-09-03T01:53:41.389Z,87.55
2016-09-03T01:54:40.644Z,88.28
2016-09-03T01:55:41.357Z,87.6
2016-09-03T01:56:41.342Z,87.51
2016-09-03T01:57:41.326Z,87.22
2016-09-03T01:58:40.586Z,87.51
2016-09-03T01:59:40.575Z,87.6
2016-09-03T02:00:41.341Z,87.8
2016-09-03T02:01:41.285Z,87.51
2016-09-03T02:02:41.254Z,87.51
2016-09-03T02:03:41.247Z,87.07
2016-09-03T02:04:41.230Z,87.22
2016-09-03T02:05:40.498Z,87.32
2016-09-03T02:06:40.491Z,87.41
2016-09-03T02:07:41.195Z,88.47
2016-09-03T02:08:40.466Z,88.62
2016-09-03T02:09:41.166Z,88.91
2016-09-03T02:10:40.459Z,88.43
2016-09-03T02:11:41.144Z,89.01
2016-09-03T02:12:41.156Z,89.01
2016-09-03T02:13:41.127Z,89.78
2016-09-03T02:14:41.105Z,89.73
2016-09-03T02:15:41.098Z,90.16
2016-09-03T02:16:40.356Z,88.91
2016-09-03T02:17:41.065Z,89.29
2016-09-03T02:18:41.054Z,89.2
2016-09-03T02:19:41.041Z,89.01
2016-09-03T02:20:41.031Z,88.91
2016-09-03T02:21:41.011Z,89.15
2016-09-03T02:22:41.005Z,88.67
2016-09-03T02:23:40.988Z,87.95
2016-09-03T02:24:40.980Z,87.95
2016-09-03T02:25:40.965Z,88.33
2016-09-03T02:26:40.963Z,89.29
2016-09-03T02:27:40.964Z,88.33
2016-09-03T02:28:40.219Z,88.62
2016-09-03T02:29:40.920Z,88.43
2016-09-03T02:30:40.182Z,88.53
2016-09-03T02:31:40.887Z,88.33
2016-09-03T02:32:40.875Z,88.24
2016-09-03T02:33:40.867Z,88.14
2016-09-03T02:34:40.856Z,87.37
2016-09-03T02:35:40.829Z,87.18
2016-09-03T02:36:40.827Z,87.27
2016-09-03T02:37:40.817Z,86.93
2016-09-03T02:38:40.801Z,86.07
2016-09-03T02:39:40.784Z,86.26
2016-09-03T02:40:40.778Z,86.51
2016-09-03T02:41:40.756Z,87.18
2016-09-03T02:42:40.744Z,86.41
2016-09-03T02:43:40.746Z,87.46
2016-09-03T02:44:40.726Z,87.42
2016-09-03T02:45:40.705Z,87.23
2016-09-03T02:46:40.696Z,87.37
2016-09-03T02:47:40.683Z,87.33
2016-09-03T02:48:40.668Z,87.18
2016-09-03T02:49:40.651Z,87.08
2016-09-03T02:50:39.923Z,87.08
2016-09-03T02:51:40.652Z,87.52
2016-09-03T02:52:39.899Z,87.62
2016-09-03T02:53:40.607Z,87.71
2016-09-03T02:54:39.881Z,87.52
2016-09-03T02:55:40.573Z,87.52
2016-09-03T02:56:40.565Z,88
2016-09-03T02:57:39.838Z,88.1
2016-09-03T02:58:40.550Z,88.1
2016-09-03T02:59:40.521Z,87.71
2016-09-03T03:00:40.516Z,87.33
2016-09-03T03:01:40.520Z,87.71
2016-09-03T03:02:40.486Z,88
2016-09-03T03:03:39.772Z,88.34
2016-09-03T03:04:39.738Z,88.48
2016-09-03T03:05:40.451Z,88.34
2016-09-03T03:06:40.432Z,87.86
2016-09-03T03:07:40.425Z,87.9
2016-09-03T03:08:40.402Z,88.48
2016-09-03T03:09:40.406Z,88.06
2016-09-03T03:10:40.377Z,88.39
2016-09-03T03:11:40.419Z,87.86
2016-09-03T03:12:40.360Z,87.48
2016-09-03T03:13:40.329Z,87.42
2016-09-03T03:14:40.326Z,87.52
2016-09-03T03:15:40.314Z,87.71
2016-09-03T03:16:40.295Z,87.52
2016-09-03T03:17:39.587Z,87.33
2016-09-03T03:18:40.279Z,87.62
2016-09-03T03:19:40.262Z,87.29
2016-09-03T03:20:39.533Z,88.1
2016-09-03T03:21:39.514Z,88.24
2016-09-03T03:22:40.221Z,88.44
2016-09-03T03:23:39.499Z,88.44
2016-09-03T03:24:40.193Z,88.92
2016-09-03T03:25:40.177Z,88.73
2016-09-03T03:26:40.165Z,88.2
2016-09-03T03:27:40.146Z,88.44
2016-09-03T03:28:40.133Z,88.73
2016-09-03T03:29:40.121Z,88.73
2016-09-03T03:30:40.115Z,88.53
2016-09-03T03:31:40.099Z,88.24
2016-09-03T03:32:40.101Z,88.34
2016-09-03T03:33:40.068Z,87.86
2016-09-03T03:34:39.344Z,87.38
2016-09-03T03:35:40.039Z,87.48
2016-09-03T03:36:40.032Z,87.13
2016-09-03T03:37:40.011Z,87.33
2016-09-03T03:38:40.011Z,87.71
2016-09-03T03:39:39.979Z,87.96
2016-09-03T03:40:39.980Z,88.34
2016-09-03T03:41:39.967Z,88.39
2016-09-03T03:42:39.945Z,88.39
2016-09-03T03:43:39.934Z,89.07
2016-09-03T03:44:39.212Z,88.78
2016-09-03T03:45:39.906Z,88.87
2016-09-03T03:46:39.900Z,88.78
2016-09-03T03:47:39.890Z,89.26
2016-09-03T03:48:39.870Z,88.87
2016-09-03T03:49:39.862Z,88.87
2016-09-03T03:50:39.845Z,88.92
2016-09-03T03:51:39.821Z,88.73
2016-09-03T03:52:39.815Z,89.07
2016-09-03T03:53:39.796Z,88.49
2016-09-03T03:54:39.786Z,87.86
2016-09-03T03:55:39.071Z,87.38
2016-09-03T03:56:39.757Z,87.09
2016-09-03T03:57:39.748Z,87.38
2016-09-03T03:58:39.732Z,87.48
2016-09-03T03:59:38.999Z,87.29
2016-09-03T04:00:39.722Z,86.71
2016-09-03T04:01:39.687Z,86.61
2016-09-03T04:02:38.959Z,86.8
2016-09-03T04:03:39.668Z,87.19
2016-09-03T04:04:39.653Z,87.09
2016-09-03T04:05:39.638Z,86.61
2016-09-03T04:06:39.622Z,86.71
2016-09-03T04:07:39.604Z,86.32
2016-09-03T04:08:39.623Z,86.32
2016-09-03T04:09:39.581Z,86.32
2016-09-03T04:10:39.631Z,86.32
2016-09-03T04:11:39.557Z,86.52
2016-09-03T04:12:39.551Z,86.52
2016-09-03T04:13:39.531Z,86.8
2016-09-03T04:14:39.572Z,87.67
2016-09-03T04:15:39.497Z,87.15
2016-09-03T04:16:39.480Z,87.34
2016-09-03T04:17:39.481Z,87.62
2016-09-03T04:18:39.455Z,87.15
2016-09-03T04:19:39.452Z,87.34
2016-09-03T04:20:39.445Z,86.85
2016-09-03T04:21:39.426Z,87.05
2016-09-03T04:22:39.407Z,87.05
2016-09-03T04:23:38.749Z,87.43
2016-09-03T04:24:39.382Z,87.43
2016-09-03T04:25:39.362Z,87.05
2016-09-03T04:26:39.346Z,86.95
2016-09-03T04:27:38.617Z,87.24
2016-09-03T04:28:39.322Z,87.43
2016-09-03T04:29:39.302Z,87.34
2016-09-03T04:30:39.357Z,87.72
2016-09-03T04:31:39.275Z,87.68
2016-09-03T04:32:39.319Z,87.49
2016-09-03T04:33:39.258Z,87.05
2016-09-03T04:34:39.238Z,87.05
2016-09-03T04:35:39.221Z,86.28
2016-09-03T04:36:39.214Z,86.38
2016-09-03T04:37:38.482Z,86.38
2016-09-03T04:38:39.189Z,86.18
2016-09-03T04:39:39.172Z,86.09
2016-09-03T04:40:39.175Z,85.84
2016-09-03T04:41:39.136Z,86.42
2016-09-03T04:42:39.126Z,86.61
2016-09-03T04:43:39.110Z,86.13
2016-09-03T04:44:39.092Z,85.8
2016-09-03T04:45:39.079Z,86.28
2016-09-03T04:46:39.067Z,85.75
2016-09-03T04:47:39.059Z,85.55
2016-09-03T04:48:39.041Z,86.28
2016-09-03T04:49:38.313Z,86.22
2016-09-03T04:50:39.016Z,85.84
2016-09-03T04:51:39.008Z,85.75
2016-09-03T04:52:39.041Z,86.42
2016-09-03T04:53:38.979Z,86.42
2016-09-03T04:54:38.962Z,86.32
2016-09-03T04:55:38.227Z,86.13
2016-09-03T04:56:38.933Z,86.42
2016-09-03T04:57:38.916Z,86.32
2016-09-03T04:58:38.922Z,86.52
2016-09-03T04:59:38.891Z,86.13
2016-09-03T05:00:38.182Z,86.22
2016-09-03T05:01:38.869Z,86.42
2016-09-03T05:02:38.851Z,86.8
2016-09-03T05:03:38.833Z,86.61
2016-09-03T05:04:38.821Z,86.71
2016-09-03T05:05:38.804Z,87.09
2016-09-03T05:06:38.076Z,86.85
2016-09-03T05:07:38.790Z,87.38
2016-09-03T05:08:38.049Z,86.99
2016-09-03T05:09:38.757Z,86.71
2016-09-03T05:10:38.746Z,86.61
2016-09-03T05:11:38.727Z,86.71
2016-09-03T05:12:38.709Z,86.71
2016-09-03T05:13:38.699Z,86.71
2016-09-03T05:14:38.690Z,87.29
2016-09-03T05:15:38.668Z,86.9
2016-09-03T05:16:38.661Z,87.57
2016-09-03T05:17:38.649Z,88.3
2016-09-03T05:18:38.650Z,88.06
2016-09-03T05:19:37.902Z,88.59
2016-09-03T05:20:38.601Z,88.68
2016-09-03T05:21:38.605Z,88.78
2016-09-03T05:22:38.575Z,88.87
2016-09-03T05:23:38.563Z,88.68
2016-09-03T05:24:38.545Z,88.87
2016-09-03T05:25:38.531Z,89.26
2016-09-03T05:26:38.514Z,89.16
2016-09-03T05:27:38.503Z,89.36
2016-09-03T05:28:37.780Z,89.54
2016-09-03T05:29:37.959Z,89.54
2016-09-03T05:30:38.466Z,89.36
2016-09-03T05:31:38.457Z,88.97
2016-09-03T05:32:38.442Z,88.59
2016-09-03T05:33:38.428Z,89.07
2016-09-03T05:34:38.415Z,88.63
2016-09-03T05:35:38.399Z,88.01
2016-09-03T05:36:38.382Z,89.07
2016-09-03T05:37:37.653Z,88.68
2016-09-03T05:38:38.357Z,88.68
2016-09-03T05:39:38.340Z,89.74
2016-09-03T05:40:38.321Z,89.93
2016-09-03T05:41:38.322Z,89.36
2016-09-03T05:42:38.301Z,89.07
2016-09-03T05:43:37.634Z,89.26
2016-09-03T05:44:38.271Z,88.3
2016-09-03T05:45:38.271Z,88.44
2016-09-03T05:46:38.244Z,88.53
2016-09-03T05:47:38.290Z,88.2
2016-09-03T05:48:38.212Z,88.87
2016-09-03T05:49:38.244Z,88.87
2016-09-03T05:50:38.192Z,88.78
2016-09-03T05:51:38.220Z,88.68
2016-09-03T05:52:38.175Z,88.63
2016-09-03T05:53:37.441Z,89.01
2016-09-03T05:54:38.138Z,88.63
2016-09-03T05:55:38.122Z,89.01
2016-09-03T05:56:38.107Z,89.16
2016-09-03T05:57:38.096Z,89.64
2016-09-03T05:58:38.083Z,89.54
2016-09-03T05:59:38.123Z,89.16
2016-09-03T06:00:38.052Z,88.87
2016-09-03T06:01:38.052Z,88.44
2016-09-03T06:02:38.028Z,88.97
2016-09-03T06:03:38.014Z,88.59
2016-09-03T06:04:37.282Z,88.34
2016-09-03T06:05:37.982Z,88.15
2016-09-03T06:06:37.982Z,87.96
2016-09-03T06:07:37.954Z,87.48
2016-09-03T06:08:37.224Z,87.33
2016-09-03T06:09:37.985Z,87.09
2016-09-03T06:10:37.911Z,87.19
2016-09-03T06:11:37.901Z,87.33
2016-09-03T06:12:37.891Z,88.15
2016-09-03T06:13:37.870Z,87.48
2016-09-03T06:14:37.866Z,88.34
2016-09-03T06:15:37.852Z,88.24
2016-09-03T06:16:37.833Z,87.86
2016-09-03T06:17:37.829Z,88.34
2016-09-03T06:18:37.808Z,88.73
2016-09-03T06:19:37.798Z,88.34
2016-09-03T06:20:37.065Z,88.53
2016-09-03T06:21:37.763Z,89.4
2016-09-03T06:22:37.753Z,89.69
2016-09-03T06:23:37.042Z,89.07
2016-09-03T06:24:37.725Z,89.16
2016-09-03T06:25:37.717Z,89.21
2016-09-03T06:26:37.709Z,88.44
2016-09-03T06:27:37.694Z,88.92
2016-09-03T06:28:36.955Z,88.82
2016-09-03T06:29:37.693Z,88.63
2016-09-03T06:30:37.657Z,88.34
2016-09-03T06:31:36.917Z,88.19
2016-09-03T06:32:37.618Z,88
2016-09-03T06:33:37.647Z,88.67
2016-09-03T06:34:37.601Z,88.34
2016-09-03T06:35:37.578Z,88.53
2016-09-03T06:36:37.568Z,88.63
2016-09-03T06:37:36.849Z,89.11
2016-09-03T06:38:37.545Z,89.69
2016-09-03T06:39:37.529Z,89.78
2016-09-03T06:40:37.507Z,89.78
2016-09-03T06:41:37.500Z,89.3
2016-09-03T06:42:37.485Z,88.82
2016-09-03T06:43:37.478Z,88.53
2016-09-03T06:44:37.471Z,88.67
2016-09-03T06:45:37.449Z,88.82
2016-09-03T06:46:37.438Z,89.11
2016-09-03T06:47:37.434Z,89.3
2016-09-03T06:48:37.399Z,89.15
2016-09-03T06:49:37.399Z,88.73
2016-09-03T06:50:37.376Z,88.96
2016-09-03T06:51:37.371Z,89.78
2016-09-03T06:52:37.356Z,89.98
2016-09-03T06:53:37.338Z,89.4
2016-09-03T06:54:36.610Z,89.98
2016-09-03T06:55:37.318Z,89.21
2016-09-03T06:56:36.589Z,89.78
2016-09-03T06:57:37.289Z,89.88
2016-09-03T06:58:37.270Z,89.69
2016-09-03T06:59:36.547Z,89.88
2016-09-03T07:00:37.260Z,90.36
2016-09-03T07:01:36.523Z,88.92
2016-09-03T07:02:37.213Z,88.77
2016-09-03T07:03:37.206Z,89.25
2016-09-03T07:04:37.197Z,88.29
2016-09-03T07:05:37.189Z,87.81
2016-09-03T07:06:37.166Z,87.18
2016-09-03T07:07:36.437Z,87.08
2016-09-03T07:08:37.147Z,86.22
2016-09-03T07:09:37.135Z,85.3
2016-09-03T07:10:37.121Z,85.49
2016-09-03T07:11:36.398Z,85.3
2016-09-03T07:12:37.110Z,86.31
2016-09-03T07:13:37.187Z,86.31
2016-09-03T07:14:37.149Z,86.31
2016-09-03T07:15:37.139Z,86.02
2016-09-03T07:16:37.130Z,85.83
2016-09-03T07:17:37.271Z,85
2016-09-03T07:18:37.088Z,84.05
2016-09-03T07:19:37.158Z,84.09
2016-09-03T07:20:36.433Z,83.7
2016-09-03T07:21:36.421Z,83.12
2016-09-03T07:22:37.342Z,82.06
2016-09-03T07:23:36.698Z,80.02
2016-09-03T07:24:37.203Z,78.71
2016-09-03T07:25:37.159Z,78.08
2016-09-03T07:26:37.166Z,78.71
2016-09-03T07:27:37.100Z,78.91
2016-09-03T07:28:37.077Z,78.61
2016-09-03T07:29:37.060Z,79.35
2016-09-03T07:30:37.207Z,79.35
2016-09-03T07:31:37.117Z,78.71
2016-09-03T07:32:36.377Z,78.42
2016-09-03T07:33:37.163Z,76.82
2016-09-03T07:34:37.109Z,76.24
2016-09-03T07:35:37.168Z,76.53
2016-09-03T07:36:37.152Z,76.24
2016-09-03T07:37:37.148Z,76.53
2016-09-03T07:38:37.144Z,76.15
2016-09-03T07:39:37.119Z,76.24
2016-09-03T07:40:37.110Z,77.26
2016-09-03T07:41:37.085Z,76.1
2016-09-03T07:42:37.098Z,75.47
2016-09-03T07:43:37.099Z,74.99
2016-09-03T07:44:37.144Z,74.64
2016-09-03T07:45:37.081Z,74.64
2016-09-03T07:46:36.243Z,75.09
2016-09-03T07:47:36.258Z,75.02
2016-09-03T07:48:37.034Z,74.64
2016-09-03T07:49:37.019Z,74
2016-09-03T07:50:37.049Z,73.13
2016-09-03T07:51:36.229Z,72.78
2016-09-03T07:52:37.029Z,72.2
2016-09-03T07:53:36.195Z,71.36
2016-09-03T07:54:37.008Z,69.85
2016-09-03T07:55:37.021Z,68.91
2016-09-03T07:56:36.987Z,69.46
2016-09-03T07:57:36.977Z,70.59
2016-09-03T07:58:36.984Z,70.2
2016-09-03T07:59:37.020Z,70.78
2016-09-03T08:00:36.950Z,71.1
2016-09-03T08:01:36.841Z,70.81
2016-09-03T08:02:36.848Z,69.59
2016-09-03T08:03:35.978Z,68.59
2016-09-03T08:04:36.729Z,67.82
2016-09-03T08:05:36.780Z,68.49
2016-09-03T08:06:36.745Z,68.95
2016-09-03T08:07:36.643Z,68.75
2016-09-03T08:08:36.629Z,68.3
2016-09-03T08:09:36.599Z,67.88
2016-09-03T08:10:36.678Z,66.69
2016-09-03T08:11:36.559Z,66.4
2016-09-03T08:12:36.510Z,65.66
2016-09-03T08:13:35.789Z,64.95
2016-09-03T08:14:36.520Z,65.11
2016-09-03T08:15:35.825Z,65.4
2016-09-03T08:16:35.887Z,68.43
2016-09-03T08:17:36.559Z,69.88
2016-09-03T08:18:36.518Z,72.16
2016-09-03T08:19:35.772Z,72.13
2016-09-03T08:20:36.465Z,72.42
2016-09-03T08:21:36.452Z,72.16
2016-09-03T08:22:35.771Z,71.88
2016-09-03T08:23:36.477Z,72.16
2016-09-03T08:24:35.733Z,73.77
2016-09-03T08:25:36.459Z,73.86
2016-09-03T08:26:36.426Z,73.96
2016-09-03T08:27:36.489Z,75.57
2016-09-03T08:28:36.436Z,76.59
2016-09-03T08:29:36.462Z,76.88
2016-09-03T08:30:36.421Z,75.76
2016-09-03T08:31:36.365Z,74.64
2016-09-03T08:32:36.382Z,74.54
2016-09-03T08:33:36.348Z,74.93
2016-09-03T08:34:36.357Z,76.28
2016-09-03T08:35:36.419Z,77.25
2016-09-03T08:36:36.387Z,78.56
2016-09-03T08:37:35.619Z,79.39
2016-09-03T08:38:35.616Z,80.06
2016-09-03T08:39:36.457Z,80.6
2016-09-03T08:40:36.487Z,81.6
2016-09-03T08:41:36.398Z,81.37
2016-09-03T08:42:36.529Z,80.69
2016-09-03T08:43:36.371Z,79.77
2016-09-03T08:44:36.355Z,79.58
2016-09-03T08:45:36.288Z,80.16
2016-09-03T08:46:36.326Z,80.64
2016-09-03T08:47:36.224Z,80.83
2016-09-03T08:48:35.537Z,80.45
2016-09-03T08:49:36.189Z,81.32
2016-09-03T08:50:36.232Z,81.16
2016-09-03T08:51:35.504Z,80.1
2016-09-03T08:52:35.459Z,80.3
2016-09-03T08:53:36.182Z,81.84
2016-09-03T08:54:36.190Z,83.15
2016-09-03T08:55:36.165Z,82.57
2016-09-03T08:56:35.408Z,83.05
2016-09-03T08:57:35.413Z,84.11
2016-09-03T08:58:36.159Z,85.75
2016-09-03T08:59:36.102Z,85.66
2016-09-03T09:00:36.133Z,85.6
2016-09-03T09:01:36.101Z,86.66
2016-09-03T09:02:36.083Z,86.52
2016-09-03T09:03:35.354Z,86.66
2016-09-03T09:04:36.057Z,87.48
2016-09-03T09:05:36.037Z,87.48
2016-09-03T09:06:35.320Z,87.15
2016-09-03T09:07:35.299Z,87.05
2016-09-03T09:08:35.299Z,87.24
2016-09-03T09:09:35.990Z,86.57
2016-09-03T09:10:36.024Z,86.57
2016-09-03T09:11:35.974Z,86.96
2016-09-03T09:12:35.241Z,87.44
2016-09-03T09:13:35.943Z,87.82
2016-09-03T09:14:35.219Z,87.63
2016-09-03T09:15:35.209Z,87.44
2016-09-03T09:16:35.916Z,87.34
2016-09-03T09:17:35.197Z,87.73
2016-09-03T09:18:35.191Z,87.63
2016-09-03T09:19:35.889Z,87.05
2016-09-03T09:20:35.175Z,86.96
2016-09-03T09:21:35.864Z,86.47
2016-09-03T09:22:35.862Z,86.28
2016-09-03T09:23:35.844Z,84.93
2016-09-03T09:24:35.827Z,85.74
2016-09-03T09:25:35.820Z,87.34
2016-09-03T09:26:35.834Z,88.93
2016-09-03T09:27:35.116Z,88.75
2016-09-03T09:28:35.093Z,88.17
2016-09-03T09:29:35.778Z,88.36
2016-09-03T09:30:35.049Z,88.65
2016-09-03T09:31:35.052Z,89.23
2016-09-03T09:32:35.763Z,89.03
2016-09-03T09:33:35.083Z,90
2016-09-03T09:34:35.008Z,90.38
2016-09-03T09:35:35.723Z,90.09
2016-09-03T09:36:35.722Z,91.16
2016-09-03T09:37:35.691Z,91.35
2016-09-03T09:38:35.683Z,92.36
2016-09-03T09:39:34.960Z,92.99
2016-09-03T09:40:35.647Z,93.71
2016-09-03T09:41:35.694Z,91.4
2016-09-03T09:42:34.922Z,91.5
2016-09-03T09:43:34.908Z,91.69
2016-09-03T09:44:34.923Z,91.69
2016-09-03T09:45:35.677Z,92.56
2016-09-03T09:46:35.601Z,92.36
2016-09-03T09:47:34.867Z,93.04
2016-09-03T09:48:34.847Z,93.43
2016-09-03T09:49:34.839Z,93.43
2016-09-03T09:50:35.549Z,92.12
2016-09-03T09:51:35.534Z,93.04
2016-09-03T09:52:35.538Z,93.86
2016-09-03T09:53:35.509Z,94.48
2016-09-03T09:54:35.493Z,94.54
2016-09-03T09:55:35.500Z,94.34
2016-09-03T09:56:34.829Z,94.73
2016-09-03T09:57:35.467Z,96.37
2016-09-03T09:58:35.457Z,95.94
2016-09-03T09:59:35.447Z,96.27
2016-09-03T10:00:35.436Z,98.44
2016-09-03T10:01:35.445Z,97.91
2016-09-03T10:02:35.427Z,97.67
2016-09-03T10:03:35.450Z,96.8
2016-09-03T10:04:35.417Z,96.46
2016-09-03T10:05:35.430Z,95.89
2016-09-03T10:06:35.391Z,95.26
2016-09-03T10:07:34.650Z,95.45
2016-09-03T10:08:35.342Z,95.36
2016-09-03T10:09:35.352Z,95.45
2016-09-03T10:10:35.319Z,95.16
2016-09-03T10:11:35.322Z,94.48
2016-09-03T10:12:35.299Z,95.59
2016-09-03T10:13:35.309Z,95.31
2016-09-03T10:14:35.277Z,95.16
2016-09-03T10:15:35.309Z,95.16
2016-09-03T10:16:35.244Z,94.78
2016-09-03T10:17:34.527Z,95.79
2016-09-03T10:18:35.239Z,96.27
2016-09-03T10:19:35.214Z,96.46
2016-09-03T10:20:35.211Z,96.37
2016-09-03T10:21:35.193Z,96.7
2016-09-03T10:22:34.476Z,96.7
2016-09-03T10:23:34.450Z,97.76
2016-09-03T10:24:35.153Z,97.28
2016-09-03T10:25:34.427Z,97.28
2016-09-03T10:26:35.129Z,97.57
2016-09-03T10:27:35.126Z,97.14
2016-09-03T10:28:35.105Z,95.5
2016-09-03T10:29:35.096Z,94.58
2016-09-03T10:30:34.366Z,92.74
2016-09-03T10:31:35.066Z,91.25
2016-09-03T10:32:35.068Z,90.09
2016-09-03T10:33:34.349Z,90.13
2016-09-03T10:34:34.329Z,90.28
2016-09-03T10:35:35.026Z,91.01
2016-09-03T10:36:34.298Z,90.67
2016-09-03T10:37:35.010Z,91.49
2016-09-03T10:38:35.017Z,91.11
2016-09-03T10:39:35.015Z,90.77
2016-09-03T10:40:34.976Z,90.09
2016-09-03T10:41:34.244Z,89.45
2016-09-03T10:42:34.970Z,88.34
2016-09-03T10:43:34.948Z,87.95
2016-09-03T10:44:34.938Z,89.5
2016-09-03T10:45:34.206Z,90.09
2016-09-03T10:46:34.913Z,89.51
2016-09-03T10:47:34.902Z,89.45
2016-09-03T10:48:34.904Z,88.87
2016-09-03T10:49:34.164Z,89.59
2016-09-03T10:50:34.879Z,89.11
2016-09-03T10:51:34.870Z,89.65
2016-09-03T10:52:34.158Z,90.86
2016-09-03T10:53:34.857Z,91.63
2016-09-03T10:54:34.827Z,93.52
2016-09-03T10:55:34.817Z,93.28
2016-09-03T10:56:34.101Z,92.36
2016-09-03T10:57:34.816Z,91.49
2016-09-03T10:58:34.064Z,91.44
2016-09-03T10:59:34.787Z,90.57
2016-09-03T11:00:34.773Z,89.84
2016-09-03T11:01:34.759Z,89.55
2016-09-03T11:02:34.030Z,89.21
2016-09-03T11:03:34.737Z,89.06
2016-09-03T11:04:34.741Z,89.06
2016-09-03T11:05:34.006Z,88.63
2016-09-03T11:06:34.711Z,88.19
2016-09-03T11:07:34.705Z,87.95
2016-09-03T11:08:34.693Z,88.19
2016-09-03T11:09:34.686Z,88.87
2016-09-03T11:10:34.682Z,89.65
2016-09-03T11:11:33.956Z,89.65
2016-09-03T11:12:33.933Z,89.65
2016-09-03T11:13:34.643Z,89.59
2016-09-03T11:14:33.912Z,90.03
2016-09-03T11:15:34.627Z,89.65
2016-09-03T11:16:34.615Z,90.13
2016-09-03T11:17:34.601Z,89.55
2016-09-03T11:18:34.591Z,89.94
2016-09-03T11:19:33.867Z,90.71
2016-09-03T11:20:34.574Z,90.86
2016-09-03T11:21:34.571Z,90.37
2016-09-03T11:22:33.834Z,90.03
2016-09-03T11:23:33.822Z,89.84
2016-09-03T11:24:34.526Z,89.79
2016-09-03T11:25:34.521Z,89.64
2016-09-03T11:26:33.800Z,89.11
2016-09-03T11:27:34.508Z,89.15
2016-09-03T11:28:34.492Z,89.55
2016-09-03T11:29:34.480Z,90.23
2016-09-03T11:30:34.477Z,88.87
2016-09-03T11:31:34.463Z,87.51
2016-09-03T11:32:34.468Z,86.45
2016-09-03T11:33:33.819Z,84.21
2016-09-03T11:34:34.439Z,82.94
2016-09-03T11:35:34.517Z,81.77
2016-09-03T11:36:33.779Z,81.87
2016-09-03T11:37:33.687Z,82.3
2016-09-03T11:38:34.394Z,82.4
2016-09-03T11:39:34.406Z,82.65
2016-09-03T11:40:33.662Z,83.09
2016-09-03T11:41:34.387Z,83.28
2016-09-03T11:42:34.359Z,83.09
2016-09-03T11:43:34.354Z,83.38
2016-09-03T11:44:33.637Z,83.18
2016-09-03T11:45:34.325Z,82.35
2016-09-03T11:46:34.321Z,82.01
2016-09-03T11:47:34.317Z,81.43
2016-09-03T11:48:34.306Z,81.52
2016-09-03T11:49:34.288Z,81.43
2016-09-03T11:50:34.285Z,81.77
2016-09-03T11:51:34.275Z,82.17
2016-09-03T11:52:33.556Z,84.55
2016-09-03T11:53:33.641Z,85.91
2016-09-03T11:54:33.530Z,86.65
2016-09-03T11:55:34.242Z,86.1
2016-09-03T11:56:34.225Z,85.91
2016-09-03T11:57:34.223Z,85.33
2016-09-03T11:58:34.213Z,85.42
2016-09-03T11:59:34.202Z,85.33
2016-09-03T12:00:33.491Z,85.33
2016-09-03T12:01:34.183Z,85.72
2016-09-03T12:02:34.180Z,85.52
2016-09-03T12:03:33.445Z,85.62
2016-09-03T12:04:34.157Z,83.98
2016-09-03T12:05:33.436Z,82.6
2016-09-03T12:06:34.143Z,80.71
2016-09-03T12:07:34.124Z,78.99
2016-09-03T12:08:34.134Z,79.08
2016-09-03T12:09:33.406Z,78.94
2016-09-03T12:10:34.103Z,79.14
2016-09-03T12:11:34.094Z,78.94
2016-09-03T12:12:34.085Z,78.85
2016-09-03T12:13:34.078Z,77.14
2016-09-03T12:14:33.346Z,77.02
2016-09-03T12:15:33.344Z,78.34
2016-09-03T12:16:34.054Z,78.59
2016-09-03T12:17:34.040Z,78.85
2016-09-03T12:18:33.313Z,78.85
2016-09-03T12:19:34.022Z,79.24
2016-09-03T12:20:34.024Z,80.07
2016-09-03T12:21:34.006Z,80.94
2016-09-03T12:22:34.063Z,80.62
2016-09-03T12:23:33.997Z,81.54
2016-09-03T12:24:33.980Z,79.93
2016-09-03T12:25:33.976Z,79.93
2016-09-03T12:26:33.980Z,78.52
2016-09-03T12:27:33.952Z,77.98
2016-09-03T12:28:33.984Z,76.56
2016-09-03T12:29:33.943Z,75.08
2016-09-03T12:30:33.948Z,74.34
2016-09-03T12:31:33.924Z,73.75
2016-09-03T12:32:33.919Z,74.15
2016-09-03T12:33:33.916Z,75.67
2016-09-03T12:34:33.891Z,78.36
2016-09-03T12:35:33.888Z,79.3
2016-09-03T12:36:33.889Z,78.81
2016-09-03T12:37:33.879Z,78.71
2016-09-03T12:38:33.876Z,78.91
2016-09-03T12:39:33.855Z,78.91
2016-09-03T12:40:33.127Z,79.68
2016-09-03T12:41:33.840Z,81.1
2016-09-03T12:42:33.826Z,81.93
2016-09-03T12:43:33.104Z,82.03
2016-09-03T12:44:33.098Z,81.83
2016-09-03T12:45:33.805Z,81.93
2016-09-03T12:46:33.079Z,81.25
2016-09-03T12:47:33.789Z,81.93
2016-09-03T12:48:33.783Z,82.35
2016-09-03T12:49:33.063Z,82.41
2016-09-03T12:50:33.770Z,82.51
2016-09-03T12:51:33.746Z,82.26
2016-09-03T12:52:33.743Z,81.83
2016-09-03T12:53:33.738Z,80.85
2016-09-03T12:54:33.008Z,80.21
2016-09-03T12:55:32.999Z,81.08